Time,TemperatureF,DewpointF,PressureIn,WindDirection,WindDirectionDegrees,WindSpeedMPH,WindSpeedGustMPH,Humidity,HourlyPrecipIn,Conditions,Clouds,dailyrainin,SoftwareType,DateUTC
2013-05-17 00:04:00,64.8,59.2,27.43,ESE,107,6.0,0.0,82,0.00,,,-99.99,FreeWX-Wi 1.01,2013-05-17 05:04:00,
2013-05-17 00:09:00,64.8,58.8,27.43,ESE,107,6.0,0.0,81,0.00,,,-99.99,FreeWX-Wi 1.01,2013-05-17 05:09:00,
2013-05-17 00:14:00,64.8,59.2,27.43,ESE,107,6.0,0.0,82,0.00,,,-99.99,FreeWX-Wi 1.01,2013-05-17 05:14:00,
2013-05-17 00:19:00,64.8,58.8,27.43,ESE,107,6.0,0.0,81,0.00,,,-99.99,FreeWX-Wi 1.01,2013-05-17 05:19:00,
2013-05-17 00:24:00,64.6,59.0,27.43,ESE,107,6.0,0.0,82,0.00,,,-99.99,FreeWX-Wi 1.01,2013-05-17 05:24:00,
2013-05-17 00:29:00,64.4,59.2,27.43,ESE,107,6.0,0.0,83,0.00,,,-99.99,FreeWX-Wi 1.01,2013-05-17 05:29:00,
2013-05-17 00:34:00,64.4,59.5,27.43,ESE,107,6.0,0.0,84,0.00,,,-99.99,FreeWX-Wi 1.01,2013-05-17 05:34:00,
2013-05-17 00:39:00,64.2,59.9,27.43,ESE,107,6.0,0.0,86,0.00,,,-99.99,FreeWX-Wi 1.01,2013-05-17 05:39:00,
2013-05-17 00:44:00,64.2,60.3,27.43,ESE,107,6.0,0.0,87,0.00,,,-99.99,FreeWX-Wi 1.01,2013-05-17 05:44:00,
2013-05-17 00:49:00,64.2,60.3,27.43,ESE,107,6.0,0.0,87,0.00,,,-99.99,FreeWX-Wi 1.01,2013-05-17 05:49:00,
2013-05-17 00:54:00,64.2,60.3,27.43,ESE,107,6.0,0.0,87,0.00,,,-99.99,FreeWX-Wi 1.01,2013-05-17 05:54:00,
2013-05-17 01:00:00,64.0,60.4,27.43,ESE,107,6.0,0.0,88,0.00,,,-99.99,FreeWX-Wi 1.01,2013-05-17 06:00:00,
2013-05-17 01:05:00,64.0,60.8,27.43,ESE,107,6.0,0.0,89,0.00,,,-99.99,FreeWX-Wi 1.01,2013-05-17 06:05:00,
2013-05-17 01:10:00,64.0,61.0,27.43,ESE,107,6.0,0.0,90,0.00,,,-99.99,FreeWX-Wi 1.01,2013-05-17 06:10:00,
2013-05-17 01:15:00,63.9,60.8,27.43,ESE,107,6.0,0.0,90,0.00,,,-99.99,FreeWX-Wi 1.01,2013-05-17 06:15:00,
2013-05-17 01:20:00,63.9,60.8,27.43,ESE,107,6.0,0.0,90,0.00,,,-99.99,FreeWX-Wi 1.01,2013-05-17 06:20:00,
2013-05-17 01:25:00,63.7,60.6,27.43,ESE,107,6.0,0.0,90,0.00,,,-99.99,FreeWX-Wi 1.01,2013-05-17 06:25:00,
2013-05-17 01:30:00,63.5,60.8,27.43,ESE,107,6.0,0.0,91,0.00,,,-99.99,FreeWX-Wi 1.01,2013-05-17 06:30:00,
2013-05-17 01:35:00,63.5,60.8,27.43,ESE,107,6.0,0.0,91,0.00,,,-99.99,FreeWX-Wi 1.01,2013-05-17 06:35:00,
2013-05-17 01:40:00,63.3,61.0,27.43,ESE,107,6.0,0.0,92,0.00,,,-99.99,FreeWX-Wi 1.01,2013-05-17 06:40:00,
2013-05-17 01:45:00,63.3,61.3,27.43,ESE,107,6.0,0.0,93,0.00,,,-99.99,FreeWX-Wi 1.01,2013-05-17 06:45:00,
2013-05-17 01:50:00,63.3,61.3,27.43,ESE,107,6.0,0.0,93,0.00,,,-99.99,FreeWX-Wi 1.01,2013-05-17 06:50:00,
2013-05-17 01:56:00,63.3,61.3,27.43,ESE,107,6.0,0.0,93,0.00,,,-99.99,FreeWX-Wi 1.01,2013-05-17 06:56:00,
2013-05-17 02:01:00,63.1,61.2,27.43,ESE,107,6.0,0.0,93,0.00,,,-99.99,FreeWX-Wi 1.01,2013-05-17 07:01:00,
2013-05-17 02:06:00,63.1,61.3,27.43,ESE,107,6.0,0.0,94,0.00,,,-99.99,FreeWX-Wi 1.01,2013-05-17 07:06:00,
2013-05-17 02:11:00,63.1,61.3,27.43,ESE,107,6.0,0.0,94,0.00,,,-99.99,FreeWX-Wi 1.01,2013-05-17 07:11:00,
2013-05-17 02:16:00,63.0,61.5,27.43,ESE,107,6.0,0.0,95,0.08,,,-99.99,FreeWX-Wi 1.01,2013-05-17 07:16:00,
2013-05-17 02:21:00,62.8,61.3,27.43,ESE,107,6.0,0.0,95,0.08,,,-99.99,FreeWX-Wi 1.01,2013-05-17 07:21:00,
2013-05-17 02:26:00,62.8,61.7,27.43,ESE,107,6.0,0.0,96,0.08,,,-99.99,FreeWX-Wi 1.01,2013-05-17 07:26:00,
2013-05-17 02:31:00,62.8,61.9,27.43,ESE,107,6.0,0.0,97,0.08,,,-99.99,FreeWX-Wi 1.01,2013-05-17 07:31:00,
2013-05-17 02:36:00,62.8,61.9,27.43,ESE,107,6.0,0.0,97,0.08,,,-99.99,FreeWX-Wi 1.01,2013-05-17 07:36:00,
2013-05-17 02:42:00,62.6,61.7,27.43,ESE,107,6.0,0.0,97,0.08,,,-99.99,FreeWX-Wi 1.01,2013-05-17 07:42:00,
2013-05-17 02:47:00,62.8,62.2,27.43,ESE,107,6.0,0.0,98,0.08,,,-99.99,FreeWX-Wi 1.01,2013-05-17 07:47:00,
2013-05-17 02:52:00,62.8,62.2,27.46,ESE,107,6.0,0.0,98,0.12,,,-99.99,FreeWX-Wi 1.01,2013-05-17 07:52:00,
2013-05-17 02:57:00,62.8,62.2,27.46,ESE,107,6.0,0.0,98,0.12,,,-99.99,FreeWX-Wi 1.01,2013-05-17 07:57:00,
2013-05-17 03:02:00,62.6,62.1,27.46,ESE,107,6.0,0.0,98,0.16,,,-99.99,FreeWX-Wi 1.01,2013-05-17 08:02:00,
2013-05-17 03:07:00,62.2,61.7,27.46,ESE,107,6.0,0.0,98,0.20,,,-99.99,FreeWX-Wi 1.01,2013-05-17 08:07:00,
2013-05-17 03:12:00,61.7,60.8,27.46,ESE,107,6.0,0.0,97,0.12,,,-99.99,FreeWX-Wi 1.01,2013-05-17 08:12:00,
2013-05-17 03:17:00,61.5,60.1,27.46,ESE,107,6.0,0.0,95,0.12,,,-99.99,FreeWX-Wi 1.01,2013-05-17 08:17:00,
2013-05-17 03:23:00,61.5,60.1,27.46,ESE,107,6.0,0.0,95,0.12,,,-99.99,FreeWX-Wi 1.01,2013-05-17 08:23:00,
2013-05-17 03:28:00,61.5,60.4,27.46,ESE,107,6.0,0.0,96,0.12,,,-99.99,FreeWX-Wi 1.01,2013-05-17 08:28:00,
2013-05-17 03:33:00,61.3,60.3,27.46,ESE,107,6.0,0.0,96,0.12,,,-99.99,FreeWX-Wi 1.01,2013-05-17 08:33:00,
2013-05-17 03:38:00,61.3,60.3,27.46,ESE,107,6.0,0.0,96,0.12,,,-99.99,FreeWX-Wi 1.01,2013-05-17 08:38:00,
2013-05-17 03:43:00,61.2,60.1,27.46,ESE,107,6.0,0.0,96,0.12,,,-99.99,FreeWX-Wi 1.01,2013-05-17 08:43:00,
2013-05-17 03:48:00,60.1,58.6,27.46,ESE,107,6.0,0.0,95,0.43,,,-99.99,FreeWX-Wi 1.01,2013-05-17 08:48:00,
2013-05-17 03:53:00,60.3,58.8,27.46,ESE,107,6.0,0.0,95,0.39,,,-99.99,FreeWX-Wi 1.01,2013-05-17 08:53:00,
2013-05-17 03:58:00,60.1,58.6,27.46,ESE,107,6.0,0.0,95,0.35,,,-99.99,FreeWX-Wi 1.01,2013-05-17 08:58:00,
2013-05-17 04:04:00,60.1,59.0,27.46,ESE,107,6.0,0.0,96,0.31,,,-99.99,FreeWX-Wi 1.01,2013-05-17 09:04:00,
2013-05-17 04:09:00,60.1,59.2,27.46,ESE,107,6.0,0.0,97,0.31,,,-99.99,FreeWX-Wi 1.01,2013-05-17 09:09:00,
2013-05-17 04:14:00,60.1,59.5,27.46,ESE,107,6.0,0.0,98,0.31,,,-99.99,FreeWX-Wi 1.01,2013-05-17 09:14:00,
2013-05-17 04:19:00,60.1,59.5,27.46,ESE,107,6.0,0.0,98,0.31,,,-99.99,FreeWX-Wi 1.01,2013-05-17 09:19:00,
2013-05-17 04:24:00,60.1,59.5,27.46,ESE,107,6.0,0.0,98,0.31,,,-99.99,FreeWX-Wi 1.01,2013-05-17 09:24:00,
2013-05-17 04:30:00,60.1,59.5,27.46,ESE,107,6.0,0.0,98,0.31,,,-99.99,FreeWX-Wi 1.01,2013-05-17 09:30:00,
2013-05-17 04:35:00,60.1,59.5,27.46,ESE,107,6.0,0.0,98,0.31,,,-99.99,FreeWX-Wi 1.01,2013-05-17 09:35:00,
2013-05-17 04:40:00,60.1,59.5,27.46,ESE,107,6.0,0.0,98,0.31,,,-99.99,FreeWX-Wi 1.01,2013-05-17 09:40:00,
2013-05-17 04:45:00,60.1,59.5,27.46,ESE,107,6.0,0.0,98,0.00,,,-99.99,FreeWX-Wi 1.01,2013-05-17 09:45:00,
2013-05-17 04:50:00,60.1,59.5,27.46,ESE,107,6.0,0.0,98,0.00,,,-99.99,FreeWX-Wi 1.01,2013-05-17 09:50:00,
2013-05-17 04:55:00,59.9,59.4,27.46,ESE,107,6.0,0.0,98,0.00,,,-99.99,FreeWX-Wi 1.01,2013-05-17 09:55:00,
2013-05-17 05:01:00,59.9,59.4,27.46,ESE,107,6.0,0.0,98,0.00,,,-99.99,FreeWX-Wi 1.01,2013-05-17 10:01:00,
2013-05-17 05:06:00,59.7,59.2,27.46,ESE,107,6.0,0.0,98,0.00,,,-99.99,FreeWX-Wi 1.01,2013-05-17 10:06:00,
2013-05-17 05:11:00,59.5,59.0,27.46,ESE,107,6.0,0.0,98,0.00,,,-99.99,FreeWX-Wi 1.01,2013-05-17 10:11:00,
2013-05-17 05:16:00,59.4,58.8,27.46,ESE,107,6.0,0.0,98,0.00,,,-99.99,FreeWX-Wi 1.01,2013-05-17 10:16:00,
2013-05-17 05:21:00,59.5,59.0,27.49,ESE,107,6.0,0.0,98,0.00,,,-99.99,FreeWX-Wi 1.01,2013-05-17 10:21:00,
2013-05-17 05:26:00,59.5,59.0,27.49,ESE,107,6.0,0.0,98,0.00,,,-99.99,FreeWX-Wi 1.01,2013-05-17 10:26:00,
2013-05-17 05:31:00,58.5,57.9,27.49,ESE,107,6.0,0.0,98,0.00,,,-99.99,FreeWX-Wi 1.01,2013-05-17 10:31:00,
2013-05-17 05:36:00,57.9,57.4,27.49,ESE,107,6.0,0.0,98,0.00,,,-99.99,FreeWX-Wi 1.01,2013-05-17 10:36:00,
2013-05-17 05:41:00,57.4,56.8,27.49,ESE,107,6.0,0.0,98,0.00,,,-99.99,FreeWX-Wi 1.01,2013-05-17 10:41:00,
2013-05-17 05:46:00,57.4,56.8,27.49,ESE,107,6.0,0.0,98,0.00,,,-99.99,FreeWX-Wi 1.01,2013-05-17 10:46:00,
2013-05-17 05:52:00,57.4,56.8,27.46,ESE,107,6.0,0.0,98,0.00,,,-99.99,FreeWX-Wi 1.01,2013-05-17 10:52:00,
2013-05-17 05:57:00,57.2,56.7,27.46,ESE,107,6.0,0.0,98,0.00,,,-99.99,FreeWX-Wi 1.01,2013-05-17 10:57:00,
2013-05-17 06:02:00,57.2,56.7,27.46,ESE,107,6.0,0.0,98,0.00,,,-99.99,FreeWX-Wi 1.01,2013-05-17 11:02:00,
2013-05-17 06:07:00,57.2,56.7,27.46,ESE,107,6.0,0.0,98,0.00,,,-99.99,FreeWX-Wi 1.01,2013-05-17 11:07:00,
2013-05-17 06:12:00,57.2,56.7,27.46,ESE,107,6.0,0.0,98,0.00,,,-99.99,FreeWX-Wi 1.01,2013-05-17 11:12:00,
2013-05-17 06:18:00,57.2,56.7,27.46,ESE,107,6.0,0.0,98,0.00,,,-99.99,FreeWX-Wi 1.01,2013-05-17 11:18:00,
2013-05-17 06:23:00,57.2,56.7,27.43,ESE,107,6.0,0.0,98,0.00,,,-99.99,FreeWX-Wi 1.01,2013-05-17 11:23:00,
2013-05-17 06:28:00,57.2,56.7,27.43,ESE,107,6.0,0.0,98,0.00,,,-99.99,FreeWX-Wi 1.01,2013-05-17 11:28:00,
2013-05-17 06:33:00,57.2,56.7,27.43,ESE,107,6.0,0.0,98,0.00,,,-99.99,FreeWX-Wi 1.01,2013-05-17 11:33:00,
2013-05-17 06:38:00,57.0,56.5,27.43,ESE,107,6.0,0.0,98,0.00,,,-99.99,FreeWX-Wi 1.01,2013-05-17 11:38:00,
2013-05-17 06:43:00,57.0,56.5,27.43,ESE,107,6.0,0.0,98,0.00,,,-99.99,FreeWX-Wi 1.01,2013-05-17 11:43:00,
2013-05-17 06:48:00,57.0,56.5,27.43,ESE,107,6.0,0.0,98,0.00,,,-99.99,FreeWX-Wi 1.01,2013-05-17 11:48:00,
2013-05-17 06:54:00,56.8,56.3,27.43,ESE,107,6.0,0.0,98,0.00,,,-99.99,FreeWX-Wi 1.01,2013-05-17 11:54:00,
2013-05-17 06:59:00,56.7,56.1,27.43,ESE,107,6.0,0.0,98,0.00,,,-99.99,FreeWX-Wi 1.01,2013-05-17 11:59:00,
2013-05-17 07:04:00,56.7,56.1,27.43,ESE,107,6.0,0.0,98,0.00,,,-99.99,FreeWX-Wi 1.01,2013-05-17 12:04:00,
2013-05-17 07:09:00,56.5,55.9,27.43,ESE,107,6.0,0.0,98,0.00,,,-99.99,FreeWX-Wi 1.01,2013-05-17 12:09:00,
2013-05-17 07:14:00,56.3,55.8,27.43,ESE,106,6.0,13.2,98,0.00,,,-99.99,FreeWX-Wi 1.01,2013-05-17 12:14:00,
2013-05-17 07:19:00,56.3,55.8,27.43,ESE,106,6.0,0.0,98,0.00,,,-99.99,FreeWX-Wi 1.01,2013-05-17 12:19:00,
2013-05-17 07:24:00,55.9,55.4,27.43,ESE,106,6.0,0.0,98,0.00,,,-99.99,FreeWX-Wi 1.01,2013-05-17 12:24:00,
2013-05-17 07:29:00,55.6,55.0,27.43,ESE,106,6.0,0.0,98,0.00,,,-99.99,FreeWX-Wi 1.01,2013-05-17 12:29:00,
2013-05-17 07:34:00,55.4,54.9,27.43,ESE,107,6.0,13.6,98,0.00,,,-99.99,FreeWX-Wi 1.01,2013-05-17 12:34:00,
2013-05-17 07:39:00,55.2,54.7,27.43,ESE,107,6.0,0.0,98,0.00,,,-99.99,FreeWX-Wi 1.01,2013-05-17 12:39:00,
2013-05-17 07:44:00,54.9,54.3,27.43,ESE,107,6.0,0.0,98,0.00,,,-99.99,FreeWX-Wi 1.01,2013-05-17 12:44:00,
2013-05-17 07:50:00,54.7,54.1,27.43,ESE,107,6.0,0.0,98,0.00,,,-99.99,FreeWX-Wi 1.01,2013-05-17 12:50:00,
2013-05-17 07:55:00,54.9,54.3,27.43,ESE,107,6.0,0.0,98,0.00,,,-99.99,FreeWX-Wi 1.01,2013-05-17 12:55:00,
2013-05-17 08:00:00,54.9,54.3,27.43,ESE,107,6.0,0.0,98,0.00,,,-99.99,FreeWX-Wi 1.01,2013-05-17 13:00:00,
2013-05-17 08:05:00,54.7,54.1,27.46,ESE,107,6.0,0.0,98,0.00,,,-99.99,FreeWX-Wi 1.01,2013-05-17 13:05:00,
2013-05-17 08:10:00,54.7,53.8,27.46,ESE,107,6.0,0.0,97,0.00,,,-99.99,FreeWX-Wi 1.01,2013-05-17 13:10:00,
2013-05-17 08:15:00,54.5,53.6,27.46,ESE,107,6.0,0.0,97,0.00,,,-99.99,FreeWX-Wi 1.01,2013-05-17 13:15:00,
2013-05-17 08:20:00,54.5,53.1,27.46,ESE,107,6.0,0.0,95,0.00,,,-99.99,FreeWX-Wi 1.01,2013-05-17 13:20:00,
2013-05-17 08:43:00,53.8,51.4,27.46,ESE,109,14.0,16.8,92,0.00,,,-99.99,FreeWX-Wi 1.01,2013-05-17 13:43:00,
2013-05-17 08:48:00,54.1,52.2,27.46,ESE,109,14.0,0.0,93,0.00,,,-99.99,FreeWX-Wi 1.01,2013-05-17 13:48:00,
2013-05-17 08:53:00,54.3,52.7,27.46,ESE,109,14.0,0.0,94,0.00,,,-99.99,FreeWX-Wi 1.01,2013-05-17 13:53:00,
2013-05-17 08:59:00,54.0,51.4,27.46,ESE,109,14.0,0.0,91,0.00,,,-99.99,FreeWX-Wi 1.01,2013-05-17 13:59:00,
2013-05-17 09:04:00,54.0,50.7,27.46,ESE,109,14.0,0.0,89,0.00,,,-99.99,FreeWX-Wi 1.01,2013-05-17 14:04:00,
2013-05-17 09:09:00,54.3,51.4,27.46,ESE,109,14.0,0.0,90,0.00,,,-99.99,FreeWX-Wi 1.01,2013-05-17 14:09:00,
2013-05-17 09:14:00,54.5,51.3,27.46,ESE,102,13.0,14.1,89,0.00,,,-99.99,FreeWX-Wi 1.01,2013-05-17 14:14:00,
2013-05-17 09:19:00,54.7,51.3,27.46,ESE,103,13.0,15.4,88,0.00,,,-99.99,FreeWX-Wi 1.01,2013-05-17 14:19:00,
2013-05-17 09:24:00,55.4,52.5,27.46,ESE,104,13.0,14.5,90,0.00,,,-99.99,FreeWX-Wi 1.01,2013-05-17 14:24:00,
2013-05-17 09:29:00,55.9,52.5,27.46,ESE,104,13.0,14.1,88,0.00,,,-99.99,FreeWX-Wi 1.01,2013-05-17 14:29:00,
2013-05-17 09:34:00,56.5,52.3,27.46,ESE,104,13.0,13.2,86,0.00,,,-99.99,FreeWX-Wi 1.01,2013-05-17 14:34:00,
2013-05-17 09:39:00,56.8,51.8,27.46,ESE,105,13.0,16.3,83,0.00,,,-99.99,FreeWX-Wi 1.01,2013-05-17 14:39:00,
2013-05-17 09:44:00,56.8,51.8,27.46,ESE,105,13.0,0.0,83,0.00,,,-99.99,FreeWX-Wi 1.01,2013-05-17 14:44:00,
2013-05-17 09:49:00,57.0,52.0,27.46,ESE,105,13.0,0.0,83,0.00,,,-99.99,FreeWX-Wi 1.01,2013-05-17 14:49:00,
2013-05-17 09:54:00,56.7,51.6,27.46,ESE,105,13.0,0.0,83,0.00,,,-99.99,FreeWX-Wi 1.01,2013-05-17 14:54:00,
2013-05-17 09:59:00,56.5,52.3,27.46,ESE,105,13.0,0.0,86,0.00,,,-99.99,FreeWX-Wi 1.01,2013-05-17 14:59:00,
2013-05-17 10:04:00,56.3,51.4,27.46,ESE,105,13.0,0.0,84,0.00,,,-99.99,FreeWX-Wi 1.01,2013-05-17 15:04:00,
2013-05-17 10:09:00,56.1,52.3,27.46,ESE,105,13.0,0.0,87,0.00,,,-99.99,FreeWX-Wi 1.01,2013-05-17 15:09:00,
2013-05-17 10:14:00,55.9,53.1,27.46,ESE,105,13.0,0.0,90,0.00,,,-99.99,FreeWX-Wi 1.01,2013-05-17 15:14:00,
2013-05-17 10:19:00,55.8,53.4,27.49,ESE,105,13.0,0.0,92,0.00,,,-99.99,FreeWX-Wi 1.01,2013-05-17 15:19:00,
2013-05-17 10:25:00,55.8,54.1,27.49,ESE,105,13.0,0.0,94,0.00,,,-99.99,FreeWX-Wi 1.01,2013-05-17 15:25:00,
2013-05-17 10:30:00,55.8,54.3,27.49,ESE,105,13.0,0.0,95,0.00,,,-99.99,FreeWX-Wi 1.01,2013-05-17 15:30:00,
2013-05-17 10:35:00,55.8,54.7,27.46,ESE,105,13.0,0.0,96,0.00,,,-99.99,FreeWX-Wi 1.01,2013-05-17 15:35:00,
2013-05-17 10:40:00,55.8,54.9,27.46,ESE,105,13.0,0.0,97,0.00,,,-99.99,FreeWX-Wi 1.01,2013-05-17 15:40:00,
2013-05-17 10:45:00,55.8,54.9,27.46,ESE,105,13.0,0.0,97,0.00,,,-99.99,FreeWX-Wi 1.01,2013-05-17 15:45:00,
2013-05-17 10:50:00,55.9,55.4,27.46,ESE,105,13.0,0.0,98,0.00,,,-99.99,FreeWX-Wi 1.01,2013-05-17 15:50:00,
2013-05-17 10:55:00,55.9,55.4,27.46,ESE,105,13.0,0.0,98,0.00,,,-99.99,FreeWX-Wi 1.01,2013-05-17 15:55:00,
2013-05-17 11:00:00,55.9,55.4,-100.00,ESE,105,13.0,0.0,98,0.00,,,-99.99,FreeWX-Wi 1.01,2013-05-17 16:00:00,
2013-05-17 11:05:00,55.9,55.4,27.46,ESE,105,13.0,0.0,98,0.00,,,-99.99,FreeWX-Wi 1.01,2013-05-17 16:05:00,
2013-05-17 11:10:00,56.1,55.6,27.46,ESE,105,13.0,0.0,98,0.00,,,-99.99,FreeWX-Wi 1.01,2013-05-17 16:10:00,
2013-05-17 11:15:00,56.3,55.2,27.46,ESE,105,13.0,0.0,96,0.00,,,-99.99,FreeWX-Wi 1.01,2013-05-17 16:15:00,
2013-05-17 11:20:00,56.5,54.5,27.46,ESE,105,13.0,0.0,93,0.00,,,-99.99,FreeWX-Wi 1.01,2013-05-17 16:20:00,
2013-05-17 11:25:00,56.5,53.6,27.46,ESE,105,13.0,0.0,90,0.00,,,-99.99,FreeWX-Wi 1.01,2013-05-17 16:25:00,
2013-05-17 11:30:00,56.7,53.1,27.46,ESE,105,13.0,0.0,88,0.00,,,-99.99,FreeWX-Wi 1.01,2013-05-17 16:30:00,
2013-05-17 11:35:00,57.2,53.4,27.46,ESE,105,13.0,0.0,87,0.00,,,-99.99,FreeWX-Wi 1.01,2013-05-17 16:35:00,
2013-05-17 11:41:00,57.2,54.0,27.46,ESE,105,13.0,0.0,89,0.00,,,-99.99,FreeWX-Wi 1.01,2013-05-17 16:41:00,
2013-05-17 11:46:00,57.2,53.4,27.46,ESE,105,13.0,0.0,87,0.00,,,-99.99,FreeWX-Wi 1.01,2013-05-17 16:46:00,
2013-05-17 11:51:00,57.2,53.1,27.49,ESE,105,13.0,0.0,86,0.00,,,-99.99,FreeWX-Wi 1.01,2013-05-17 16:51:00,
2013-05-17 11:56:00,57.4,53.8,27.49,ESE,105,13.0,0.0,88,0.00,,,-99.99,FreeWX-Wi 1.01,2013-05-17 16:56:00,
2013-05-17 12:01:00,57.0,53.2,27.49,ESE,105,13.0,0.0,87,0.00,,,-99.99,FreeWX-Wi 1.01,2013-05-17 17:01:00,
2013-05-17 12:06:00,57.0,52.9,27.46,ESE,105,13.0,0.0,86,0.00,,,-99.99,FreeWX-Wi 1.01,2013-05-17 17:06:00,
2013-05-17 12:11:00,57.0,53.8,27.46,ESE,105,13.0,0.0,89,0.00,,,-99.99,FreeWX-Wi 1.01,2013-05-17 17:11:00,
2013-05-17 12:21:00,56.3,54.0,27.46,ESE,105,13.0,0.0,92,0.00,,,-99.99,FreeWX-Wi 1.01,2013-05-17 17:21:00,
2013-05-17 12:26:00,55.6,53.6,27.46,ESE,105,13.0,0.0,93,0.00,,,-99.99,FreeWX-Wi 1.01,2013-05-17 17:26:00,
2013-05-17 12:31:00,55.6,54.0,27.46,ESE,105,13.0,0.0,94,0.00,,,-99.99,FreeWX-Wi 1.01,2013-05-17 17:31:00,
2013-05-17 12:36:00,55.6,54.1,27.46,ESE,105,13.0,0.0,95,0.00,,,-99.99,FreeWX-Wi 1.01,2013-05-17 17:36:00,
2013-05-17 12:41:00,55.8,54.9,27.46,ESE,105,13.0,0.0,97,0.00,,,-99.99,FreeWX-Wi 1.01,2013-05-17 17:41:00,
2013-05-17 12:47:00,55.4,54.5,27.46,ESE,105,13.0,0.0,97,0.00,,,-99.99,FreeWX-Wi 1.01,2013-05-17 17:47:00,
2013-05-17 12:52:00,55.4,54.9,27.46,ESE,105,13.0,0.0,98,0.00,,,-99.99,FreeWX-Wi 1.01,2013-05-17 17:52:00,
2013-05-17 12:57:00,55.0,54.5,27.46,ESE,105,13.0,0.0,98,0.00,,,-99.99,FreeWX-Wi 1.01,2013-05-17 17:57:00,
2013-05-17 13:02:00,55.0,54.5,27.46,ESE,105,13.0,0.0,98,0.00,,,-99.99,FreeWX-Wi 1.01,2013-05-17 18:02:00,
2013-05-17 13:07:00,55.0,54.5,27.46,ESE,105,13.0,0.0,98,0.00,,,-99.99,FreeWX-Wi 1.01,2013-05-17 18:07:00,
2013-05-17 13:12:00,55.0,54.5,27.46,ESE,105,13.0,0.0,98,0.00,,,-99.99,FreeWX-Wi 1.01,2013-05-17 18:12:00,
2013-05-17 13:17:00,55.4,54.9,27.46,ESE,105,13.0,0.0,98,0.00,,,-99.99,FreeWX-Wi 1.01,2013-05-17 18:17:00,
2013-05-17 13:23:00,55.6,55.0,27.46,ESE,105,13.0,0.0,98,0.00,,,-99.99,FreeWX-Wi 1.01,2013-05-17 18:23:00,
2013-05-17 13:28:00,55.8,55.2,27.46,ESE,105,13.0,0.0,98,0.00,,,-99.99,FreeWX-Wi 1.01,2013-05-17 18:28:00,
2013-05-17 13:33:00,55.8,55.2,27.46,ESE,105,13.0,0.0,98,0.00,,,-99.99,FreeWX-Wi 1.01,2013-05-17 18:33:00,
2013-05-17 13:38:00,56.1,55.6,27.46,ESE,105,13.0,0.0,98,0.00,,,-99.99,FreeWX-Wi 1.01,2013-05-17 18:38:00,
2013-05-17 13:43:00,56.5,55.9,27.46,ESE,105,13.0,0.0,98,0.00,,,-99.99,FreeWX-Wi 1.01,2013-05-17 18:43:00,
2013-05-17 13:48:00,56.1,55.0,27.43,ESE,105,13.0,0.0,96,0.00,,,-99.99,FreeWX-Wi 1.01,2013-05-17 18:48:00,
2013-05-17 13:53:00,56.3,55.2,27.43,ESE,105,13.0,0.0,96,0.00,,,-99.99,FreeWX-Wi 1.01,2013-05-17 18:53:00,
2013-05-17 13:58:00,55.9,54.5,27.43,ESE,105,13.0,0.0,95,0.00,,,-99.99,FreeWX-Wi 1.01,2013-05-17 18:58:00,
2013-05-17 14:03:00,55.8,54.1,27.46,ESE,105,13.0,0.0,94,0.00,,,-99.99,FreeWX-Wi 1.01,2013-05-17 19:03:00,
2013-05-17 14:08:00,55.4,53.8,27.46,ESE,105,13.0,0.0,94,0.00,,,-99.99,FreeWX-Wi 1.01,2013-05-17 19:08:00,
2013-05-17 14:13:00,55.4,54.3,27.46,ESE,105,13.0,0.0,96,0.00,,,-99.99,FreeWX-Wi 1.01,2013-05-17 19:13:00,
2013-05-17 14:18:00,55.6,54.7,27.43,ESE,105,13.0,0.0,97,0.00,,,-99.99,FreeWX-Wi 1.01,2013-05-17 19:18:00,
2013-05-17 14:23:00,55.6,55.0,27.43,ESE,105,13.0,0.0,98,0.00,,,-99.99,FreeWX-Wi 1.01,2013-05-17 19:23:00,
2013-05-17 14:28:00,55.8,55.2,27.43,ESE,105,13.0,0.0,98,0.00,,,-99.99,FreeWX-Wi 1.01,2013-05-17 19:28:00,
2013-05-17 14:33:00,55.9,55.4,27.43,ESE,105,13.0,0.0,98,0.00,,,-99.99,FreeWX-Wi 1.01,2013-05-17 19:33:00,
2013-05-17 14:39:00,56.3,55.8,27.43,ESE,105,13.0,0.0,98,0.00,,,-99.99,FreeWX-Wi 1.01,2013-05-17 19:39:00,
2013-05-17 14:44:00,56.7,56.1,27.43,ESE,105,13.0,0.0,98,0.00,,,-99.99,FreeWX-Wi 1.01,2013-05-17 19:44:00,
2013-05-17 14:49:00,57.2,56.1,27.43,ESE,105,13.0,0.0,96,0.00,,,-99.99,FreeWX-Wi 1.01,2013-05-17 19:49:00,
2013-05-17 14:54:00,58.1,56.7,27.43,ESE,105,13.0,0.0,95,0.00,,,-99.99,FreeWX-Wi 1.01,2013-05-17 19:54:00,
2013-05-17 14:59:00,59.0,57.0,27.43,ESE,105,13.0,0.0,93,0.00,,,-99.99,FreeWX-Wi 1.01,2013-05-17 19:59:00,
2013-05-17 15:04:00,59.4,56.1,27.43,ESE,105,13.0,0.0,89,0.00,,,-99.99,FreeWX-Wi 1.01,2013-05-17 20:04:00,
2013-05-17 15:09:00,60.3,56.7,27.43,ESE,105,13.0,0.0,88,0.00,,,-99.99,FreeWX-Wi 1.01,2013-05-17 20:09:00,
2013-05-17 15:14:00,60.8,54.9,27.43,ESE,105,13.0,0.0,81,0.00,,,-99.99,FreeWX-Wi 1.01,2013-05-17 20:14:00,
2013-05-17 15:19:00,60.4,54.9,27.46,ESE,105,13.0,0.0,82,0.00,,,-99.99,FreeWX-Wi 1.01,2013-05-17 20:19:00,
2013-05-17 15:24:00,60.6,55.8,27.46,ESE,105,13.0,0.0,84,0.00,,,-99.99,FreeWX-Wi 1.01,2013-05-17 20:24:00,
2013-05-17 15:29:00,61.3,55.8,27.46,ESE,105,13.0,0.0,82,0.00,,,-99.99,FreeWX-Wi 1.01,2013-05-17 20:29:00,
2013-05-17 15:34:00,62.4,56.8,27.46,ESE,105,13.0,0.0,82,0.00,,,-99.99,FreeWX-Wi 1.01,2013-05-17 20:34:00,
2013-05-17 15:39:00,63.0,55.2,27.46,ESE,105,13.0,0.0,76,0.00,,,-99.99,FreeWX-Wi 1.01,2013-05-17 20:39:00,
2013-05-17 15:44:00,62.8,54.0,27.46,ESE,105,13.0,0.0,73,0.00,,,-99.99,FreeWX-Wi 1.01,2013-05-17 20:44:00,
2013-05-17 15:49:00,62.4,55.8,27.49,ESE,104,13.0,13.0,79,0.00,,,-99.99,FreeWX-Wi 1.01,2013-05-17 20:49:00,
2013-05-17 15:54:00,62.4,55.0,27.49,ESE,104,13.0,13.0,77,0.00,,,-99.99,FreeWX-Wi 1.01,2013-05-17 20:54:00,
2013-05-17 16:00:00,62.8,55.0,27.49,ESE,104,13.0,0.0,76,0.00,,,-99.99,FreeWX-Wi 1.01,2013-05-17 21:00:00,
2013-05-17 16:05:00,63.0,55.2,27.49,ESE,104,13.0,0.0,76,0.00,,,-99.99,FreeWX-Wi 1.01,2013-05-17 21:05:00,
2013-05-17 16:10:00,63.0,54.1,27.49,ESE,104,13.0,13.2,73,0.00,,,-99.99,FreeWX-Wi 1.01,2013-05-17 21:10:00,
2013-05-17 16:15:00,63.9,55.8,27.49,ESE,104,13.0,0.0,75,0.00,,,-99.99,FreeWX-Wi 1.01,2013-05-17 21:15:00,
2013-05-17 16:20:00,63.7,54.5,27.49,ESE,104,13.0,0.0,72,0.00,,,-99.99,FreeWX-Wi 1.01,2013-05-17 21:20:00,
2013-05-17 16:25:00,64.0,54.5,27.49,ESE,104,13.0,0.0,71,0.00,,,-99.99,FreeWX-Wi 1.01,2013-05-17 21:25:00,
2013-05-17 16:30:00,64.4,55.2,27.49,ESE,104,13.0,0.0,72,0.00,,,-99.99,FreeWX-Wi 1.01,2013-05-17 21:30:00,
2013-05-17 16:35:00,64.8,55.9,27.49,ESE,104,13.0,0.0,73,0.00,,,-99.99,FreeWX-Wi 1.01,2013-05-17 21:35:00,
2013-05-17 16:40:00,65.3,55.6,27.49,ESE,104,13.0,0.0,71,0.00,,,-99.99,FreeWX-Wi 1.01,2013-05-17 21:40:00,
2013-05-17 16:45:00,65.5,55.8,27.49,ESE,104,13.0,0.0,71,0.00,,,-99.99,FreeWX-Wi 1.01,2013-05-17 21:45:00,
2013-05-17 16:50:00,65.8,55.8,27.49,ESE,104,13.0,0.0,70,0.00,,,-99.99,FreeWX-Wi 1.01,2013-05-17 21:50:00,
2013-05-17 16:55:00,66.4,55.9,27.49,ESE,104,13.0,0.0,69,0.00,,,-99.99,FreeWX-Wi 1.01,2013-05-17 21:55:00,
2013-05-17 17:01:00,66.9,55.9,-100.00,ESE,104,13.0,0.0,68,0.00,,,-99.99,FreeWX-Wi 1.01,2013-05-17 22:01:00,
2013-05-17 17:06:00,67.3,54.7,27.46,ESE,104,13.0,0.0,64,0.00,,,-99.99,FreeWX-Wi 1.01,2013-05-17 22:06:00,
2013-05-17 17:11:00,67.5,55.2,27.46,ESE,104,13.0,0.0,65,0.00,,,-99.99,FreeWX-Wi 1.01,2013-05-17 22:11:00,
2013-05-17 17:16:00,66.9,54.7,27.46,ESE,104,13.0,0.0,65,0.00,,,-99.99,FreeWX-Wi 1.01,2013-05-17 22:16:00,
2013-05-17 17:21:00,66.7,55.0,27.46,ESE,104,13.0,0.0,66,0.00,,,-99.99,FreeWX-Wi 1.01,2013-05-17 22:21:00,
2013-05-17 17:26:00,66.6,55.6,27.46,ESE,104,13.0,0.0,68,0.00,,,-99.99,FreeWX-Wi 1.01,2013-05-17 22:26:00,
2013-05-17 17:31:00,66.4,55.4,27.46,ESE,104,13.0,0.0,68,0.00,,,-99.99,FreeWX-Wi 1.01,2013-05-17 22:31:00,
2013-05-17 17:36:00,66.2,55.8,27.46,ESE,104,13.0,0.0,69,0.00,,,-99.99,FreeWX-Wi 1.01,2013-05-17 22:36:00,
2013-05-17 17:41:00,66.0,56.3,27.46,ESE,104,13.0,0.0,71,0.00,,,-99.99,FreeWX-Wi 1.01,2013-05-17 22:41:00,
2013-05-17 17:47:00,65.8,56.1,27.46,ESE,105,13.0,13.0,71,0.00,,,-99.99,FreeWX-Wi 1.01,2013-05-17 22:47:00,
2013-05-17 17:52:00,65.8,56.5,27.46,ESE,105,13.0,0.0,72,0.00,,,-99.99,FreeWX-Wi 1.01,2013-05-17 22:52:00,
2013-05-17 17:57:00,65.7,56.8,27.46,ESE,105,13.0,0.0,73,0.00,,,-99.99,FreeWX-Wi 1.01,2013-05-17 22:57:00,
2013-05-17 18:02:00,65.7,56.3,27.46,ESE,105,13.0,0.0,72,0.00,,,-99.99,FreeWX-Wi 1.01,2013-05-17 23:02:00,
2013-05-17 18:07:00,65.5,55.8,27.46,ESE,105,13.0,0.0,71,0.00,,,-99.99,FreeWX-Wi 1.01,2013-05-17 23:07:00,
2013-05-17 18:12:00,65.5,56.7,27.46,ESE,105,13.0,0.0,73,0.00,,,-99.99,FreeWX-Wi 1.01,2013-05-17 23:12:00,
2013-05-17 18:17:00,65.5,56.7,27.46,ESE,105,13.0,0.0,73,0.00,,,-99.99,FreeWX-Wi 1.01,2013-05-17 23:17:00,
2013-05-17 18:22:00,65.5,57.0,27.46,ESE,105,13.0,0.0,74,0.00,,,-99.99,FreeWX-Wi 1.01,2013-05-17 23:22:00,
2013-05-17 18:27:00,65.5,56.1,27.46,ESE,105,13.0,0.0,72,0.00,,,-99.99,FreeWX-Wi 1.01,2013-05-17 23:27:00,
2013-05-17 18:32:00,65.3,56.5,27.46,ESE,105,13.0,0.0,73,0.00,,,-99.99,FreeWX-Wi 1.01,2013-05-17 23:32:00,
2013-05-17 18:37:00,65.3,56.8,27.43,ESE,105,13.0,0.0,74,0.00,,,-99.99,FreeWX-Wi 1.01,2013-05-17 23:37:00,
2013-05-17 18:42:00,65.1,56.3,27.43,ESE,105,13.0,0.0,73,0.00,,,-99.99,FreeWX-Wi 1.01,2013-05-17 23:42:00,
2013-05-17 18:47:00,65.1,56.7,27.43,ESE,105,13.0,0.0,74,0.00,,,-99.99,FreeWX-Wi 1.01,2013-05-17 23:47:00,
2013-05-17 18:53:00,64.9,57.2,27.43,ESE,105,12.0,12.0,76,0.00,,,-99.99,FreeWX-Wi 1.01,2013-05-17 23:53:00,
2013-05-17 18:58:00,64.8,57.0,27.43,ESE,103,12.0,12.0,76,0.00,,,-99.99,FreeWX-Wi 1.01,2013-05-17 23:58:00,
2013-05-17 19:03:00,64.8,57.0,27.43,East,100,11.0,11.0,76,0.00,,,-99.99,FreeWX-Wi 1.01,2013-05-18 00:03:00,
2013-05-17 19:08:00,64.6,57.2,27.43,East,98,10.0,10.0,77,0.00,,,-99.99,FreeWX-Wi 1.01,2013-05-18 00:08:00,
2013-05-17 19:13:00,64.4,57.0,27.43,East,98,10.0,10.0,77,0.00,,,-99.99,FreeWX-Wi 1.01,2013-05-18 00:13:00,
2013-05-17 19:18:00,64.2,56.5,27.43,East,97,10.0,11.0,76,0.00,,,-99.99,FreeWX-Wi 1.01,2013-05-18 00:18:00,
2013-05-17 19:23:00,64.2,55.8,27.43,East,97,10.0,11.4,74,0.00,,,-99.99,FreeWX-Wi 1.01,2013-05-18 00:23:00,
2013-05-17 19:28:00,63.9,55.4,27.43,East,97,10.0,11.0,74,0.00,,,-99.99,FreeWX-Wi 1.01,2013-05-18 00:28:00,
2013-05-17 19:33:00,63.7,55.9,27.43,East,96,10.0,10.1,76,0.00,,,-99.99,FreeWX-Wi 1.01,2013-05-18 00:33:00,
2013-05-17 19:38:00,63.5,55.8,27.43,East,96,10.0,11.0,76,0.00,,,-99.99,FreeWX-Wi 1.01,2013-05-18 00:38:00,
2013-05-17 19:43:00,63.3,56.3,27.43,East,96,10.0,10.5,78,0.00,,,-99.99,FreeWX-Wi 1.01,2013-05-18 00:43:00,
2013-05-17 19:49:00,63.1,56.5,27.43,East,96,10.0,0.0,79,0.00,,,-99.99,FreeWX-Wi 1.01,2013-05-18 00:49:00,
2013-05-17 19:54:00,63.1,56.8,27.43,East,96,10.0,10.5,80,0.00,,,-99.99,FreeWX-Wi 1.01,2013-05-18 00:54:00,
2013-05-17 19:59:00,63.0,57.0,27.43,East,96,10.0,10.0,81,0.00,,,-99.99,FreeWX-Wi 1.01,2013-05-18 00:59:00,
2013-05-17 20:04:00,63.0,56.7,27.40,East,96,10.0,0.0,80,0.00,,,-99.99,FreeWX-Wi 1.01,2013-05-18 01:04:00,
2013-05-17 20:09:00,62.8,56.8,27.40,East,96,10.0,0.0,81,0.00,,,-99.99,FreeWX-Wi 1.01,2013-05-18 01:09:00,
2013-05-17 20:14:00,62.8,56.8,27.40,East,96,10.0,10.1,81,0.00,,,-99.99,FreeWX-Wi 1.01,2013-05-18 01:14:00,
2013-05-17 20:19:00,62.6,56.7,27.40,East,96,10.0,0.0,81,0.00,,,-99.99,FreeWX-Wi 1.01,2013-05-18 01:19:00,
2013-05-17 20:24:00,62.6,57.0,27.40,East,96,10.0,0.0,82,0.00,,,-99.99,FreeWX-Wi 1.01,2013-05-18 01:24:00,
2013-05-17 20:29:00,62.6,57.0,27.40,East,96,10.0,10.5,82,0.00,,,-99.99,FreeWX-Wi 1.01,2013-05-18 01:29:00,
2013-05-17 20:34:00,62.4,57.2,27.40,East,96,10.0,0.0,83,0.00,,,-99.99,FreeWX-Wi 1.01,2013-05-18 01:34:00,
2013-05-17 20:39:00,62.4,57.2,27.40,East,96,10.0,0.0,83,0.00,,,-99.99,FreeWX-Wi 1.01,2013-05-18 01:39:00,
2013-05-17 20:44:00,62.2,57.0,27.40,East,96,10.0,13.2,83,0.00,,,-99.99,FreeWX-Wi 1.01,2013-05-18 01:44:00,
2013-05-17 20:49:00,62.2,57.0,27.40,East,96,10.0,0.0,83,0.00,,,-99.99,FreeWX-Wi 1.01,2013-05-18 01:49:00,
2013-05-17 20:55:00,62.2,57.0,27.40,East,96,10.0,0.0,83,0.00,,,-99.99,FreeWX-Wi 1.01,2013-05-18 01:55:00,
2013-05-17 21:00:00,62.2,57.0,27.40,East,95,10.0,10.1,83,0.00,,,-99.99,FreeWX-Wi 1.01,2013-05-18 02:00:00,
2013-05-17 21:05:00,62.2,57.0,27.40,East,95,10.0,10.5,83,0.00,,,-99.99,FreeWX-Wi 1.01,2013-05-18 02:05:00,
2013-05-17 21:10:00,62.2,57.0,27.40,East,95,10.0,0.0,83,0.00,,,-99.99,FreeWX-Wi 1.01,2013-05-18 02:10:00,
2013-05-17 21:15:00,62.2,57.0,27.40,East,94,9.0,9.0,83,0.00,,,-99.99,FreeWX-Wi 1.01,2013-05-18 02:15:00,
2013-05-17 21:20:00,62.1,56.8,27.43,East,94,9.0,0.0,83,0.00,,,-99.99,FreeWX-Wi 1.01,2013-05-18 02:20:00,
2013-05-17 21:25:00,62.2,56.7,27.43,East,94,9.0,0.0,82,0.00,,,-99.99,FreeWX-Wi 1.01,2013-05-18 02:25:00,
2013-05-17 21:30:00,62.2,56.7,27.43,East,94,9.0,0.0,82,0.00,,,-99.99,FreeWX-Wi 1.01,2013-05-18 02:30:00,
2013-05-17 21:35:00,62.2,56.7,27.43,East,94,9.0,10.1,82,0.00,,,-99.99,FreeWX-Wi 1.01,2013-05-18 02:35:00,
2013-05-17 21:40:00,62.2,56.7,27.43,East,94,9.0,9.2,82,0.00,,,-99.99,FreeWX-Wi 1.01,2013-05-18 02:40:00,
2013-05-17 21:45:00,62.1,56.8,27.43,East,94,9.0,0.0,83,0.00,,,-99.99,FreeWX-Wi 1.01,2013-05-18 02:45:00,
2013-05-17 21:50:00,61.9,56.7,27.43,East,94,9.0,0.0,83,0.00,,,-99.99,FreeWX-Wi 1.01,2013-05-18 02:50:00,
2013-05-17 21:55:00,61.7,56.5,27.43,East,94,9.0,9.0,83,0.00,,,-99.99,FreeWX-Wi 1.01,2013-05-18 02:55:00,
2013-05-17 22:00:00,61.7,56.5,27.43,East,94,9.0,9.0,83,0.00,,,-99.99,FreeWX-Wi 1.01,2013-05-18 03:00:00,
2013-05-17 22:05:00,61.7,56.5,27.43,East,94,9.0,9.0,83,0.00,,,-99.99,FreeWX-Wi 1.01,2013-05-18 03:05:00,
2013-05-17 22:11:00,61.7,56.5,27.43,East,94,9.0,0.0,83,0.00,,,-99.99,FreeWX-Wi 1.01,2013-05-18 03:11:00,
2013-05-17 22:16:00,61.7,56.5,27.43,East,94,9.0,0.0,83,0.00,,,-99.99,FreeWX-Wi 1.01,2013-05-18 03:16:00,
2013-05-17 22:21:00,61.5,56.3,27.43,East,94,9.0,0.0,83,0.00,,,-99.99,FreeWX-Wi 1.01,2013-05-18 03:21:00,
2013-05-17 22:26:00,61.5,56.3,27.43,East,94,9.0,0.0,83,0.00,,,-99.99,FreeWX-Wi 1.01,2013-05-18 03:26:00,
2013-05-17 22:31:00,61.3,56.1,27.43,East,94,9.0,0.0,83,0.00,,,-99.99,FreeWX-Wi 1.01,2013-05-18 03:31:00,
2013-05-17 22:36:00,61.3,56.8,27.43,East,94,9.0,0.0,85,0.00,,,-99.99,FreeWX-Wi 1.01,2013-05-18 03:36:00,
2013-05-17 22:41:00,61.2,56.7,27.43,East,94,9.0,9.0,85,0.00,,,-99.99,FreeWX-Wi 1.01,2013-05-18 03:41:00,
2013-05-17 22:46:00,61.0,56.8,27.43,East,94,9.0,9.0,86,0.00,,,-99.99,FreeWX-Wi 1.01,2013-05-18 03:46:00,
2013-05-17 22:51:00,61.0,57.0,27.43,East,94,9.0,0.0,87,0.00,,,-99.99,FreeWX-Wi 1.01,2013-05-18 03:51:00,
2013-05-17 22:56:00,61.2,57.0,27.43,East,94,9.0,0.0,86,0.00,,,-99.99,FreeWX-Wi 1.01,2013-05-18 03:56:00,
2013-05-17 23:01:00,61.3,56.8,27.43,East,94,9.0,0.0,85,0.00,,,-99.99,FreeWX-Wi 1.01,2013-05-18 04:01:00,
2013-05-17 23:06:00,61.3,56.5,27.43,East,94,9.0,0.0,84,0.00,,,-99.99,FreeWX-Wi 1.01,2013-05-18 04:06:00,
2013-05-17 23:11:00,61.3,56.1,27.43,East,94,9.0,0.0,83,0.00,,,-99.99,FreeWX-Wi 1.01,2013-05-18 04:11:00,
2013-05-17 23:16:00,61.5,56.3,27.43,East,94,9.0,0.0,83,0.00,,,-99.99,FreeWX-Wi 1.01,2013-05-18 04:16:00,
2013-05-17 23:22:00,61.5,56.3,27.43,East,94,9.0,9.0,83,0.00,,,-99.99,FreeWX-Wi 1.01,2013-05-18 04:22:00,
2013-05-17 23:27:00,61.3,56.1,27.43,East,94,9.0,9.0,83,0.00,,,-99.99,FreeWX-Wi 1.01,2013-05-18 04:27:00,
2013-05-17 23:32:00,61.5,56.3,27.43,East,94,8.0,8.3,83,0.00,,,-99.99,FreeWX-Wi 1.01,2013-05-18 04:32:00,
2013-05-17 23:37:00,61.5,55.9,27.43,East,94,8.0,0.0,82,0.00,,,-99.99,FreeWX-Wi 1.01,2013-05-18 04:37:00,
2013-05-17 23:42:00,61.5,55.9,27.43,East,94,8.0,10.1,82,0.00,,,-99.99,FreeWX-Wi 1.01,2013-05-18 04:42:00,
2013-05-17 23:47:00,61.3,55.8,27.43,East,94,8.0,11.0,82,0.00,,,-99.99,FreeWX-Wi 1.01,2013-05-18 04:47:00,
2013-05-17 23:52:00,61.2,55.9,27.43,East,94,8.0,8.7,83,0.00,,,-99.99,FreeWX-Wi 1.01,2013-05-18 04:52:00,
2013-05-17 23:57:00,61.2,55.9,27.43,East,94,8.0,0.0,83,0.00,,,-99.99,FreeWX-Wi 1.01,2013-05-18 04:57:00,